Terminal Aerodrome Forecast
Issued by NWS

Home | Current Version | Previous Version | Text Only | Print | Product List | Glossary On
Versions: 1 2 3 4 5 6 7 8 9 10 11 12 13 14 15 16 17 18 19 20 21 22 23 24 25 26 27 28 29
463
FTUS42 KJAX 251727
TAFVQQ
TAF
KVQQ 251727Z 2518/2618 25011G18KT P6SM SCT040
     FM260000 26006KT P6SM FEW250
     FM260600 33005KT P6SM SKC
     FM261500 01008KT P6SM SKC=

USA.gov is the U.S. government's official web portal to all federal, state and local government web resources and services.